createdAt,value
2023-03-14T00:01:21.874Z,9.70
2023-03-14T00:03:58.878Z,9.60
2023-03-14T00:06:35.875Z,9.60
2023-03-14T00:09:13.864Z,9.52
2023-03-14T00:19:48.206Z,9.50
2023-03-14T00:22:22.530Z,9.50
2023-03-14T00:24:56.775Z,9.40
2023-03-14T00:27:31.088Z,9.40
2023-03-14T00:30:06.030Z,9.40
2023-03-14T00:32:40.789Z,9.30
2023-03-14T00:35:16.776Z,9.30
2023-03-14T00:37:51.283Z,9.30
2023-03-14T00:40:26.070Z,9.30
2023-03-14T00:43:00.501Z,9.30
2023-03-14T00:45:36.106Z,9.20
2023-03-14T00:48:10.465Z,9.20
2023-03-14T00:50:45.013Z,9.20
2023-03-14T00:53:19.430Z,9.30
2023-03-14T00:55:54.339Z,9.30
2023-03-14T00:58:28.917Z,9.30
2023-03-14T01:01:07.344Z,9.40
2023-03-14T01:03:41.896Z,9.40
2023-03-14T01:06:20.368Z,9.40
2023-03-14T01:08:55.239Z,9.40
2023-03-14T01:11:32.012Z,9.40
2023-03-14T01:14:07.215Z,9.50
2023-03-14T01:16:41.785Z,9.60
2023-03-14T01:19:16.481Z,9.70
2023-03-14T01:21:50.939Z,9.70
2023-03-14T01:24:25.319Z,9.80
2023-03-14T01:26:59.733Z,9.80
2023-03-14T01:29:35.214Z,9.80
2023-03-14T01:32:10.184Z,9.80
2023-03-14T01:34:44.625Z,9.78
2023-03-14T01:37:19.420Z,9.78
2023-03-14T01:39:54.303Z,9.70
2023-03-14T01:42:29.148Z,9.70
2023-03-14T01:45:04.991Z,9.70
2023-03-14T01:47:39.346Z,9.70
2023-03-14T01:50:16.067Z,9.70
2023-03-14T01:52:54.482Z,9.60
2023-03-14T01:55:30.955Z,9.60
2023-03-14T01:58:08.070Z,9.60
2023-03-14T02:00:43.132Z,9.60
2023-03-14T02:03:23.194Z,9.50
2023-03-14T02:06:04.354Z,9.40
2023-03-14T02:08:40.026Z,9.40
2023-03-14T02:11:20.667Z,9.30
2023-03-14T02:14:08.046Z,9.20
2023-03-14T02:17:08.554Z,9.20
2023-03-14T02:20:25.852Z,9.20
2023-03-14T02:23:05.584Z,9.20
2023-03-14T02:25:50.205Z,9.10
2023-03-14T02:28:24.831Z,9.06
2023-03-14T02:31:03.508Z,9.00
2023-03-14T02:33:42.635Z,9.00
2023-03-14T02:36:19.837Z,9.00
2023-03-14T02:39:08.042Z,9.00
2023-03-14T02:41:43.647Z,9.10
2023-03-14T02:44:18.238Z,9.10
2023-03-14T02:46:53.449Z,9.10
2023-03-14T02:49:30.873Z,9.10
2023-03-14T02:52:05.883Z,9.20
2023-03-14T02:54:40.400Z,9.20
2023-03-14T02:57:15.135Z,9.30
2023-03-14T02:59:49.369Z,9.30
2023-03-14T03:02:26.479Z,9.30
2023-03-14T03:05:00.685Z,9.30
2023-03-14T03:07:35.535Z,9.38
2023-03-14T03:10:12.383Z,9.40
2023-03-14T03:12:47.181Z,9.46
2023-03-14T03:15:21.791Z,9.50
2023-03-14T03:17:56.166Z,9.50
2023-03-14T03:20:30.789Z,9.50
2023-03-14T03:23:05.724Z,9.70
2023-03-14T03:25:40.076Z,10.00
2023-03-14T03:28:14.322Z,10.20
2023-03-14T03:30:49.186Z,10.50
2023-03-14T03:33:24.749Z,10.80
2023-03-14T03:35:59.220Z,11.06
2023-03-14T03:38:37.740Z,11.30
2023-03-14T03:41:13.147Z,11.40
2023-03-14T03:43:47.591Z,11.48
2023-03-14T03:46:23.076Z,11.50
2023-03-14T03:49:02.508Z,11.60
2023-03-14T03:51:37.220Z,11.62
2023-03-14T03:54:11.853Z,11.62
2023-03-14T03:56:46.382Z,11.60
2023-03-14T03:59:21.063Z,11.62
2023-03-14T04:01:56.093Z,11.60
2023-03-14T04:04:30.820Z,11.60
2023-03-14T04:07:04.966Z,11.60
2023-03-14T04:09:41.305Z,11.60
2023-03-14T04:12:51.022Z,11.60
2023-03-14T04:15:29.292Z,11.54
2023-03-14T04:18:04.700Z,11.50
2023-03-14T04:20:41.371Z,11.50
2023-03-14T04:23:16.129Z,11.50
2023-03-14T04:25:52.548Z,11.50
2023-03-14T04:28:28.471Z,11.40
2023-03-14T04:31:08.495Z,11.40
2023-03-14T04:33:45.016Z,11.40
2023-03-14T04:36:21.268Z,11.40
2023-03-14T04:38:55.804Z,11.40
2023-03-14T04:41:31.811Z,11.46
2023-03-14T04:44:07.005Z,11.50
2023-03-14T04:46:42.014Z,11.50
2023-03-14T04:49:16.679Z,11.40
2023-03-14T04:51:51.870Z,11.40
2023-03-14T04:54:26.831Z,11.40
2023-03-14T04:57:04.191Z,11.40
2023-03-14T04:59:40.718Z,11.40
2023-03-14T05:02:32.843Z,11.40
2023-03-14T05:05:17.893Z,11.50
2023-03-14T05:08:06.108Z,11.44
2023-03-14T05:11:17.284Z,11.44
2023-03-14T05:14:12.946Z,11.50
2023-03-14T05:17:05.996Z,11.58
2023-03-14T05:20:08.673Z,11.60
2023-03-14T05:23:21.631Z,11.68
2023-03-14T05:26:31.160Z,11.70
2023-03-14T05:29:24.401Z,11.60
2023-03-14T05:32:11.949Z,11.60
2023-03-14T05:35:13.503Z,11.50
2023-03-14T05:37:57.760Z,11.48
2023-03-14T05:41:04.556Z,11.40
2023-03-14T05:43:48.515Z,11.30
2023-03-14T05:46:52.649Z,11.12
2023-03-14T05:49:59.521Z,11.00
2023-03-14T05:52:43.332Z,10.96
2023-03-14T05:55:37.203Z,10.82
2023-03-14T05:58:28.235Z,10.80
2023-03-14T06:01:25.845Z,10.70
2023-03-14T06:04:15.493Z,10.70
2023-03-14T06:06:50.445Z,10.70
2023-03-14T06:09:25.152Z,10.64
2023-03-14T06:12:00.865Z,10.60
2023-03-14T06:14:36.071Z,10.60
2023-03-14T06:17:10.388Z,10.68
2023-03-14T06:19:50.179Z,10.70
2023-03-14T06:22:24.728Z,10.70
2023-03-14T06:24:59.291Z,10.76
2023-03-14T06:27:33.815Z,10.80
2023-03-14T06:30:10.413Z,10.90
2023-03-14T06:32:44.810Z,10.98
2023-03-14T06:35:21.698Z,11.02
2023-03-14T06:37:56.336Z,11.10
2023-03-14T06:40:30.588Z,11.24
2023-03-14T06:43:13.641Z,11.32
2023-03-14T06:45:49.415Z,11.40
2023-03-14T06:48:23.884Z,11.50
2023-03-14T06:51:00.648Z,11.50
2023-03-14T06:53:35.062Z,11.60
2023-03-14T06:56:12.335Z,11.70
2023-03-14T06:58:50.038Z,11.80
2023-03-14T07:01:28.642Z,11.80
2023-03-14T07:04:06.190Z,11.90
2023-03-14T07:06:45.246Z,11.90
2023-03-14T07:09:20.520Z,12.00
2023-03-14T07:11:58.712Z,12.00
2023-03-14T07:14:33.660Z,12.10
2023-03-14T07:17:07.950Z,12.16
2023-03-14T07:19:42.469Z,12.20
2023-03-14T07:22:17.121Z,12.20
2023-03-14T07:24:51.595Z,12.20
2023-03-14T07:27:26.725Z,12.20
2023-03-14T07:30:01.343Z,12.10
2023-03-14T07:32:36.584Z,12.10
2023-03-14T07:35:13.138Z,12.10
2023-03-14T07:37:47.947Z,12.00
2023-03-14T07:40:23.080Z,12.00
2023-03-14T07:42:58.494Z,12.00
2023-03-14T07:45:42.461Z,12.00
2023-03-14T07:48:17.132Z,11.94
2023-03-14T07:50:54.454Z,11.92
2023-03-14T07:53:29.175Z,11.94
2023-03-14T07:56:05.649Z,12.00
2023-03-14T07:58:42.496Z,12.00
2023-03-14T08:01:16.635Z,11.90
2023-03-14T08:03:51.188Z,11.90
2023-03-14T08:06:25.334Z,11.80
2023-03-14T08:09:00.181Z,11.80
2023-03-14T08:11:34.783Z,11.70
2023-03-14T08:14:09.141Z,11.70
2023-03-14T08:16:43.416Z,11.70
2023-03-14T08:19:28.806Z,11.70
2023-03-14T08:22:03.690Z,11.64
2023-03-14T08:24:38.344Z,11.60
2023-03-14T08:27:13.012Z,11.60
2023-03-14T08:29:47.428Z,11.60
2023-03-14T08:32:23.588Z,11.60
2023-03-14T08:34:58.035Z,11.58
2023-03-14T08:37:33.216Z,11.50
2023-03-14T08:40:13.887Z,11.50
2023-03-14T08:42:49.217Z,11.50
2023-03-14T08:45:25.247Z,11.40
2023-03-14T08:47:59.644Z,11.42
2023-03-14T08:50:34.222Z,11.48
2023-03-14T08:53:09.758Z,11.50
2023-03-14T08:55:44.352Z,11.40
2023-03-14T08:58:18.790Z,11.40
2023-03-14T09:00:53.799Z,11.40
2023-03-14T09:03:30.628Z,11.38
2023-03-14T09:06:12.385Z,11.40
2023-03-14T09:08:47.575Z,11.40
2023-03-14T09:11:22.792Z,11.50
2023-03-14T09:13:57.130Z,11.60
2023-03-14T09:16:32.829Z,11.64
2023-03-14T09:19:07.473Z,11.70
2023-03-14T09:21:41.779Z,11.72
2023-03-14T09:24:21.852Z,11.78
2023-03-14T09:26:56.889Z,11.80
2023-03-14T09:29:32.095Z,11.80
2023-03-14T09:32:07.375Z,11.90
2023-03-14T09:34:41.849Z,12.00
2023-03-14T09:37:17.371Z,12.04
2023-03-14T09:39:51.775Z,12.10
2023-03-14T09:42:30.545Z,12.00
2023-03-14T09:45:12.952Z,12.00
2023-03-14T09:47:58.751Z,11.90
2023-03-14T09:50:42.545Z,11.90
2023-03-14T09:53:21.226Z,11.90
2023-03-14T09:56:00.183Z,11.90
2023-03-14T09:58:35.613Z,11.84
2023-03-14T10:01:17.560Z,11.90
2023-03-14T10:03:53.440Z,11.90
2023-03-14T10:06:31.685Z,11.90
2023-03-14T10:09:08.304Z,11.90
2023-03-14T10:11:43.290Z,12.00
2023-03-14T10:14:33.790Z,12.00
2023-03-14T10:17:18.176Z,12.00
2023-03-14T10:20:01.632Z,12.10
2023-03-14T10:22:37.382Z,12.16
2023-03-14T10:25:31.795Z,12.20
2023-03-14T10:28:14.002Z,12.30
2023-03-14T10:30:50.273Z,12.36
2023-03-14T10:33:30.141Z,12.40
2023-03-14T10:36:07.980Z,12.60
2023-03-14T10:38:43.443Z,12.80
2023-03-14T10:41:26.898Z,13.00
2023-03-14T10:44:04.449Z,13.20
2023-03-14T10:46:39.102Z,13.30
2023-03-14T10:49:36.570Z,13.36
2023-03-14T10:52:50.952Z,13.50
2023-03-14T10:55:19.466Z,13.60
2023-03-14T10:57:54.082Z,13.70
2023-03-14T11:00:33.683Z,13.80
2023-03-14T11:03:16.230Z,13.98
2023-03-14T11:05:59.258Z,14.00
2023-03-14T11:08:44.166Z,14.10
2023-03-14T11:11:26.374Z,14.26
2023-03-14T11:14:26.458Z,14.50
2023-03-14T11:17:10.650Z,14.90
2023-03-14T11:20:10.245Z,15.20
2023-03-14T11:22:54.109Z,15.30
2023-03-14T11:25:38.602Z,15.40
2023-03-14T11:28:24.981Z,15.30
2023-03-14T11:31:13.469Z,15.30
2023-03-14T11:34:03.750Z,15.40
2023-03-14T11:36:44.079Z,15.40
2023-03-14T11:39:21.842Z,15.40
2023-03-14T11:42:01.248Z,15.50
2023-03-14T11:44:41.844Z,15.50
2023-03-14T11:47:21.340Z,15.54
2023-03-14T11:50:04.659Z,15.60
2023-03-14T11:52:46.782Z,15.60
2023-03-14T11:55:31.269Z,15.60
2023-03-14T11:58:17.634Z,15.50
2023-03-14T12:00:56.368Z,15.40
2023-03-14T12:03:42.330Z,15.40
2023-03-14T12:06:26.872Z,15.34
2023-03-14T12:09:04.352Z,15.40
2023-03-14T12:11:50.187Z,15.40
2023-03-14T12:14:32.672Z,15.30
2023-03-14T12:17:20.934Z,15.24
2023-03-14T12:20:17.413Z,15.16
2023-03-14T12:22:55.175Z,15.02
2023-03-14T12:25:33.149Z,15.00
2023-03-14T12:28:32.153Z,14.90
2023-03-14T12:31:48.830Z,14.86
2023-03-14T12:34:36.202Z,14.80
2023-03-14T12:37:29.201Z,14.72
2023-03-14T12:40:19.934Z,14.80
2023-03-14T12:43:21.520Z,14.90
2023-03-14T12:46:22.992Z,15.00
2023-03-14T12:49:10.477Z,14.90
2023-03-14T12:51:46.861Z,14.80
2023-03-14T12:54:46.417Z,14.80
2023-03-14T12:57:36.255Z,14.70
2023-03-14T13:00:24.492Z,14.70
2023-03-14T13:03:23.328Z,14.66
2023-03-14T13:06:04.452Z,14.60
2023-03-14T13:08:45.652Z,14.60
2023-03-14T13:11:23.398Z,14.60
2023-03-14T13:14:03.500Z,14.60
2023-03-14T13:16:41.771Z,14.56
2023-03-14T13:19:24.684Z,14.50
2023-03-14T13:22:07.029Z,14.40
2023-03-14T13:24:42.125Z,14.30
2023-03-14T13:27:25.082Z,14.30
2023-03-14T13:29:59.806Z,14.20
2023-03-14T13:32:34.813Z,14.10
2023-03-14T13:35:24.239Z,14.10
2023-03-14T13:38:13.190Z,14.10
2023-03-14T13:40:49.878Z,14.10
2023-03-14T13:43:35.238Z,14.12
2023-03-14T13:46:15.453Z,14.20
2023-03-14T13:48:53.171Z,14.20
2023-03-14T13:51:35.292Z,14.24
2023-03-14T13:54:18.076Z,14.30
2023-03-14T13:57:03.635Z,14.30
2023-03-14T13:59:39.670Z,14.20
2023-03-14T14:02:18.776Z,14.20
2023-03-14T14:04:53.366Z,14.10
2023-03-14T14:07:28.485Z,14.08
2023-03-14T14:10:05.020Z,14.10
2023-03-14T14:12:45.294Z,14.10
2023-03-14T14:21:28.561Z,13.90
2023-03-14T14:34:51.340Z,13.90
2023-03-14T14:37:28.909Z,13.90
2023-03-14T14:40:10.068Z,13.90
2023-03-14T14:42:47.090Z,13.90
2023-03-14T14:45:25.965Z,13.80
2023-03-14T14:48:06.428Z,13.70
2023-03-14T14:50:51.805Z,13.60
2023-03-14T14:53:31.727Z,13.50
2023-03-14T14:56:17.926Z,13.50
2023-03-14T14:58:59.560Z,13.50
2023-03-14T15:01:40.521Z,13.50
2023-03-14T15:04:18.136Z,13.50
2023-03-14T15:06:54.801Z,13.50
2023-03-14T15:09:29.391Z,13.50
2023-03-14T15:12:03.874Z,13.60
2023-03-14T15:14:38.043Z,13.64
2023-03-14T15:17:15.754Z,13.70
2023-03-14T15:19:49.977Z,13.70
2023-03-14T15:22:24.529Z,13.70
2023-03-14T15:24:58.872Z,13.70
2023-03-14T15:27:35.028Z,13.80
2023-03-14T15:30:15.349Z,13.82
2023-03-14T15:32:49.879Z,13.90
2023-03-14T15:35:25.005Z,14.00
2023-03-14T15:37:59.234Z,14.00
2023-03-14T15:40:34.008Z,14.00
2023-03-14T15:43:08.595Z,14.40
2023-03-14T15:45:43.405Z,14.50
2023-03-14T15:48:22.172Z,14.40
2023-03-14T15:50:57.882Z,14.40
2023-03-14T15:53:32.095Z,14.30
2023-03-14T15:56:07.363Z,14.30
2023-03-14T15:58:42.111Z,14.20
2023-03-14T16:01:17.960Z,14.10
2023-03-14T16:03:53.902Z,14.48
2023-03-14T16:06:28.321Z,15.00
2023-03-14T16:09:02.802Z,14.74
2023-03-14T16:11:37.039Z,14.50
2023-03-14T16:14:12.035Z,14.30
2023-03-14T16:16:46.459Z,14.20
2023-03-14T16:19:21.322Z,14.10
2023-03-14T16:21:55.863Z,13.98
2023-03-14T16:24:31.114Z,13.80
2023-03-14T16:27:08.116Z,13.70
2023-03-14T16:29:43.245Z,13.60
2023-03-14T16:32:17.876Z,13.58
2023-03-14T16:34:52.472Z,13.50
2023-03-14T16:37:28.558Z,13.50
2023-03-14T16:43:14.902Z,13.46
2023-03-14T16:45:51.098Z,13.50
2023-03-14T16:48:25.549Z,13.50
2023-03-14T16:51:00.618Z,13.50
2023-03-14T16:53:35.173Z,13.50
2023-03-14T16:56:11.343Z,13.50
2023-03-14T16:58:46.178Z,13.46
2023-03-14T17:01:21.817Z,13.48
2023-03-14T17:03:57.160Z,13.42
2023-03-14T17:06:32.554Z,13.40
2023-03-14T17:09:07.408Z,13.30
2023-03-14T17:11:41.920Z,13.30
2023-03-14T17:14:16.446Z,13.20
2023-03-14T17:16:51.826Z,13.20
2023-03-14T17:19:26.252Z,13.10
2023-03-14T17:22:21.103Z,13.00
2023-03-14T17:24:55.474Z,12.90
2023-03-14T17:27:30.872Z,12.80
2023-03-14T17:30:05.781Z,12.70
2023-03-14T17:32:40.204Z,12.60
2023-03-14T17:35:14.421Z,12.50
2023-03-14T17:37:49.253Z,12.46
2023-03-14T17:40:24.172Z,12.40
2023-03-14T17:42:58.577Z,12.40
2023-03-14T17:45:33.836Z,12.30
2023-03-14T17:48:09.369Z,12.30
2023-03-14T17:50:44.215Z,12.28
2023-03-14T17:53:19.076Z,12.30
2023-03-14T17:55:54.689Z,12.30
2023-03-14T17:58:29.190Z,12.20
2023-03-14T18:01:14.697Z,12.20
2023-03-14T18:03:49.725Z,12.10
2023-03-14T18:06:24.793Z,12.10
2023-03-14T18:09:00.066Z,12.10
2023-03-14T18:11:35.423Z,12.10
2023-03-14T18:14:11.653Z,12.10
2023-03-14T18:16:51.443Z,12.10
2023-03-14T18:19:26.332Z,12.02
2023-03-14T18:22:00.932Z,12.00
2023-03-14T18:24:35.516Z,11.90
2023-03-14T18:27:11.066Z,11.82
2023-03-14T18:29:46.154Z,11.80
2023-03-14T18:32:21.294Z,11.70
2023-03-14T18:34:55.619Z,11.70
2023-03-14T18:37:30.506Z,11.60
2023-03-14T18:40:06.915Z,11.60
2023-03-14T18:42:42.180Z,11.52
2023-03-14T18:45:17.320Z,11.50
2023-03-14T18:47:51.850Z,11.50
2023-03-14T18:50:26.767Z,11.40
2023-03-14T18:53:01.863Z,11.38
2023-03-14T18:55:36.806Z,11.30
2023-03-14T18:58:11.340Z,11.20
2023-03-14T19:00:45.862Z,11.14
2023-03-14T19:03:20.326Z,11.10
2023-03-14T19:05:55.681Z,11.00
2023-03-14T19:08:31.371Z,11.00
2023-03-14T19:11:11.316Z,11.00
2023-03-14T19:13:46.918Z,11.00
2023-03-14T19:16:22.462Z,11.00
2023-03-14T19:18:58.256Z,11.00
2023-03-14T19:21:34.976Z,11.00
2023-03-14T19:24:10.918Z,11.10
2023-03-14T19:26:45.503Z,11.10
2023-03-14T19:29:20.728Z,11.10
2023-03-14T19:31:55.239Z,11.10
2023-03-14T19:34:30.086Z,11.10
2023-03-14T19:37:04.838Z,11.10
2023-03-14T19:39:39.364Z,11.10
2023-03-14T19:42:14.148Z,11.10
2023-03-14T19:44:48.732Z,11.10
2023-03-14T19:47:23.239Z,11.20
2023-03-14T19:49:59.916Z,11.20
2023-03-14T19:52:35.096Z,11.20
2023-03-14T19:55:12.823Z,11.30
2023-03-14T19:57:47.474Z,11.20
2023-03-14T20:00:23.785Z,11.20
2023-03-14T20:02:58.662Z,11.26
2023-03-14T20:05:33.183Z,11.00
2023-03-14T20:08:08.078Z,10.42
2023-03-14T20:10:42.585Z,9.98
2023-03-14T20:13:22.026Z,9.70
2023-03-14T20:15:57.183Z,9.40
2023-03-14T20:18:31.764Z,9.26
2023-03-14T20:21:12.831Z,9.06
2023-03-14T20:23:47.396Z,8.84
2023-03-14T20:26:21.813Z,8.62
2023-03-14T20:28:56.380Z,8.42
2023-03-14T20:31:30.798Z,8.26
2023-03-14T20:34:05.551Z,8.06
2023-03-14T20:36:40.202Z,7.80
2023-03-14T20:39:15.724Z,7.50
2023-03-14T20:41:50.471Z,7.20
2023-03-14T20:44:24.893Z,7.02
2023-03-14T20:47:00.860Z,6.90
2023-03-14T20:49:35.756Z,6.70
2023-03-14T20:52:12.179Z,6.60
2023-03-14T20:54:47.418Z,6.50
2023-03-14T20:57:22.287Z,6.20
2023-03-14T20:59:56.856Z,5.98
2023-03-14T21:02:31.398Z,5.78
2023-03-14T21:05:06.510Z,5.60
2023-03-14T21:07:43.740Z,5.40
2023-03-14T21:10:19.302Z,5.32
2023-03-14T21:12:53.797Z,5.30
2023-03-14T21:15:28.355Z,5.20
2023-03-14T21:18:05.649Z,5.10
2023-03-14T21:20:42.310Z,5.10
2023-03-14T21:23:18.608Z,5.00
2023-03-14T21:25:55.870Z,4.90
2023-03-14T21:28:30.333Z,4.90
2023-03-14T21:31:11.993Z,4.80
2023-03-14T21:33:46.571Z,4.80
2023-03-14T21:36:21.492Z,4.80
2023-03-14T21:38:56.080Z,4.70
2023-03-14T21:41:30.592Z,4.70
2023-03-14T21:44:04.709Z,4.70
2023-03-14T21:46:39.910Z,4.70
2023-03-14T21:49:14.396Z,4.64
2023-03-14T21:51:49.805Z,4.62
2023-03-14T21:54:25.593Z,4.60
2023-03-14T21:57:00.353Z,4.60
2023-03-14T21:59:35.777Z,4.58
2023-03-14T22:02:16.610Z,4.50
2023-03-14T22:04:51.300Z,4.50
2023-03-14T22:07:25.813Z,4.50
2023-03-14T22:10:00.268Z,4.50
2023-03-14T22:12:34.689Z,4.44
2023-03-14T22:15:11.631Z,4.40
2023-03-14T22:17:46.247Z,4.40
2023-03-14T22:20:21.411Z,4.40
2023-03-14T22:22:55.927Z,4.40
2023-03-14T22:25:30.912Z,4.40
2023-03-14T22:28:06.124Z,4.40
2023-03-14T22:30:41.397Z,4.40
2023-03-14T22:33:16.235Z,4.40
2023-03-14T22:35:54.512Z,4.40
2023-03-14T22:38:29.351Z,4.40
2023-03-14T22:41:06.748Z,4.40
2023-03-14T22:43:41.576Z,4.40
2023-03-14T22:46:16.828Z,4.40
2023-03-14T22:48:51.392Z,4.40
2023-03-14T22:51:26.122Z,4.40
2023-03-14T22:54:00.544Z,4.40
2023-03-14T22:56:34.742Z,4.40
2023-03-14T22:59:09.359Z,4.40
2023-03-14T23:01:43.578Z,4.40
2023-03-14T23:04:18.237Z,4.40
2023-03-14T23:06:52.774Z,4.40
2023-03-14T23:09:27.161Z,4.40
2023-03-14T23:12:01.750Z,4.36
2023-03-14T23:14:36.263Z,4.30
2023-03-14T23:17:11.128Z,4.30
2023-03-14T23:19:45.895Z,4.30
2023-03-14T23:22:20.583Z,4.30
2023-03-14T23:24:55.129Z,4.30
2023-03-14T23:27:29.771Z,4.24
2023-03-14T23:30:04.955Z,4.20
2023-03-14T23:32:39.662Z,4.20
2023-03-14T23:35:15.180Z,4.18
2023-03-14T23:37:50.138Z,4.10
2023-03-14T23:40:25.307Z,4.10
2023-03-14T23:42:59.821Z,4.10
2023-03-14T23:45:34.372Z,4.00
2023-03-14T23:48:09.580Z,4.00
2023-03-14T23:50:44.102Z,4.00
2023-03-14T23:53:18.748Z,4.00
2023-03-14T23:55:53.210Z,4.00
2023-03-14T23:58:28.755Z,4.00
